createdAt,value
2023-07-18T00:01:32.539Z,9.50
2023-07-18T00:04:03.661Z,9.60
2023-07-18T00:06:34.921Z,8.80
2023-07-18T00:09:05.935Z,9.40
2023-07-18T00:11:37.868Z,8.60
2023-07-18T00:14:09.412Z,9.60
2023-07-18T00:16:41.022Z,9.30
2023-07-18T00:19:13.443Z,9.90
2023-07-18T00:21:44.896Z,9.30
2023-07-18T00:24:16.384Z,8.30
2023-07-18T00:26:47.393Z,9.40
2023-07-18T00:29:18.645Z,8.50
2023-07-18T00:31:50.478Z,10.00
2023-07-18T00:34:21.541Z,8.40
2023-07-18T00:36:56.512Z,8.70
2023-07-18T00:41:57.066Z,8.70
2023-07-18T00:44:28.107Z,8.80
2023-07-18T00:46:59.523Z,8.40
2023-07-18T00:49:31.183Z,9.50
2023-07-18T00:52:03.864Z,8.60
2023-07-18T00:54:35.008Z,8.70
2023-07-18T00:57:07.857Z,8.40
2023-07-18T00:59:40.068Z,7.80
2023-07-18T01:02:11.750Z,7.10
2023-07-18T01:04:44.512Z,7.40
2023-07-18T01:07:16.900Z,8.40
2023-07-18T01:09:48.742Z,7.50
2023-07-18T01:12:19.892Z,7.60
2023-07-18T01:14:51.033Z,7.30
2023-07-18T01:17:23.636Z,7.30
2023-07-18T01:19:54.849Z,7.90
2023-07-18T01:22:26.046Z,8.90
2023-07-18T01:24:57.165Z,8.30
2023-07-18T01:27:28.697Z,11.30
2023-07-18T01:30:00.188Z,11.30
2023-07-18T01:32:31.813Z,8.80
2023-07-18T01:35:06.677Z,8.10
2023-07-18T01:37:38.932Z,6.80
2023-07-18T01:40:13.986Z,6.50
2023-07-18T01:42:45.214Z,6.60
2023-07-18T01:45:16.448Z,6.00
2023-07-18T01:47:48.863Z,5.60
2023-07-18T01:50:20.867Z,5.50
2023-07-18T01:52:52.157Z,4.60
2023-07-18T01:55:24.403Z,5.10
2023-07-18T01:57:55.758Z,5.10
2023-07-18T02:00:27.003Z,5.10
2023-07-18T02:02:58.125Z,4.70
2023-07-18T02:05:31.432Z,5.60
2023-07-18T02:08:02.780Z,4.70
2023-07-18T02:10:33.940Z,5.10
2023-07-18T02:13:06.621Z,4.90
2023-07-18T02:15:37.999Z,6.60
2023-07-18T02:18:09.282Z,4.80
2023-07-18T02:20:40.466Z,6.10
2023-07-18T02:23:13.669Z,5.10
2023-07-18T02:25:44.897Z,4.70
2023-07-18T02:28:16.475Z,4.60
2023-07-18T02:30:47.661Z,4.60
2023-07-18T02:33:18.749Z,4.40
2023-07-18T02:35:52.970Z,5.30
2023-07-18T02:38:24.043Z,4.60
2023-07-18T02:40:55.764Z,4.00
2023-07-18T02:43:27.729Z,4.60
2023-07-18T02:45:58.773Z,4.30
2023-07-18T02:48:29.747Z,5.00
2023-07-18T02:51:00.991Z,4.10
2023-07-18T02:53:32.042Z,4.10
2023-07-18T02:56:03.205Z,4.20
2023-07-18T02:58:34.191Z,3.70
2023-07-18T03:01:06.354Z,4.20
2023-07-18T03:03:39.924Z,3.90
2023-07-18T03:06:11.507Z,4.60
2023-07-18T03:08:43.179Z,4.00
2023-07-18T03:11:14.328Z,4.20
2023-07-18T03:13:45.461Z,4.80
2023-07-18T03:16:16.887Z,4.70
2023-07-18T03:18:48.058Z,5.60
2023-07-18T03:21:19.629Z,4.20
2023-07-18T03:23:51.062Z,5.40
2023-07-18T03:26:22.415Z,4.70
2023-07-18T03:28:56.428Z,5.50
2023-07-18T03:31:27.525Z,4.50
2023-07-18T03:33:58.712Z,5.10
2023-07-18T03:36:29.904Z,4.40
2023-07-18T03:39:01.208Z,5.60
2023-07-18T03:41:32.865Z,5.00
2023-07-18T03:44:04.940Z,5.50
2023-07-18T03:46:36.256Z,5.80
2023-07-18T03:49:08.347Z,6.40
2023-07-18T03:51:39.888Z,4.80
2023-07-18T03:54:10.942Z,5.90
2023-07-18T03:56:42.814Z,6.20
2023-07-18T03:59:14.622Z,5.80
2023-07-18T04:01:45.782Z,5.20
2023-07-18T04:04:17.002Z,5.40
2023-07-18T04:06:48.170Z,5.80
2023-07-18T04:09:19.291Z,4.80
2023-07-18T04:11:50.567Z,4.60
2023-07-18T04:14:21.852Z,4.50
2023-07-18T04:16:53.538Z,4.10
2023-07-18T04:19:24.655Z,5.20
2023-07-18T04:21:55.723Z,4.40
2023-07-18T04:24:26.840Z,3.80
2023-07-18T04:26:57.815Z,4.20
2023-07-18T04:29:29.665Z,4.20
2023-07-18T04:32:00.711Z,3.70
2023-07-18T04:34:31.932Z,4.40
2023-07-18T04:37:02.881Z,4.40
2023-07-18T04:39:33.933Z,4.20
2023-07-18T04:42:05.641Z,4.90
2023-07-18T04:44:37.868Z,4.10
2023-07-18T04:47:10.884Z,3.60
2023-07-18T04:49:42.803Z,4.10
2023-07-18T04:52:13.780Z,4.00
2023-07-18T04:54:45.239Z,3.60
2023-07-18T04:57:16.233Z,3.60
2023-07-18T04:59:48.211Z,3.40
2023-07-18T05:02:19.716Z,3.50
2023-07-18T05:04:50.804Z,3.40
2023-07-18T05:07:22.764Z,3.70
2023-07-18T05:09:53.860Z,3.30
2023-07-18T05:12:25.092Z,3.10
2023-07-18T05:14:56.417Z,3.10
2023-07-18T05:17:30.559Z,3.10
2023-07-18T05:22:31.148Z,2.90
2023-07-18T05:25:03.271Z,3.10
2023-07-18T05:27:34.419Z,2.80
2023-07-18T05:30:06.783Z,3.90
2023-07-18T05:32:37.873Z,3.50
2023-07-18T05:35:12.621Z,3.10
2023-07-18T05:37:44.698Z,3.10
2023-07-18T05:40:19.243Z,2.90
2023-07-18T05:42:53.030Z,3.00
2023-07-18T05:45:24.274Z,3.10
2023-07-18T05:47:55.641Z,3.20
2023-07-18T05:50:26.847Z,3.40
2023-07-18T05:52:57.847Z,2.70
2023-07-18T05:55:29.017Z,3.00
2023-07-18T05:58:00.106Z,3.10
2023-07-18T06:00:31.605Z,3.10
2023-07-18T06:03:02.745Z,2.90
2023-07-18T06:05:33.846Z,2.90
2023-07-18T06:08:06.430Z,3.00
2023-07-18T06:10:38.859Z,3.10
2023-07-18T06:13:09.946Z,3.20
2023-07-18T06:15:41.009Z,2.70
2023-07-18T06:18:11.961Z,2.80
2023-07-18T06:20:45.135Z,3.50
2023-07-18T06:23:16.356Z,3.30
2023-07-18T06:25:47.439Z,2.80
2023-07-18T06:28:18.386Z,2.40
2023-07-18T06:30:50.939Z,2.70
2023-07-18T06:33:22.102Z,2.90
2023-07-18T06:35:56.471Z,2.50
2023-07-18T06:38:28.497Z,2.70
2023-07-18T06:40:59.465Z,2.60
2023-07-18T06:43:30.708Z,2.70
2023-07-18T06:46:04.385Z,2.80
2023-07-18T06:48:35.391Z,2.40
2023-07-18T06:51:08.075Z,2.80
2023-07-18T06:53:39.425Z,2.60
2023-07-18T06:56:12.477Z,2.80
2023-07-18T06:58:46.196Z,2.70
2023-07-18T07:04:14.161Z,2.20
2023-07-18T07:06:45.575Z,2.20
2023-07-18T07:09:16.659Z,2.60
2023-07-18T07:11:47.784Z,2.60
2023-07-18T07:14:19.117Z,2.20
2023-07-18T07:16:50.294Z,2.40
2023-07-18T07:19:21.388Z,2.20
2023-07-18T07:21:52.545Z,2.00
2023-07-18T07:24:23.631Z,2.10
2023-07-18T07:26:54.735Z,1.90
2023-07-18T07:29:26.380Z,2.10
2023-07-18T07:31:57.330Z,1.90
2023-07-18T07:34:30.622Z,2.20
2023-07-18T07:37:01.693Z,1.70
2023-07-18T07:39:32.809Z,1.70
2023-07-18T07:42:04.062Z,2.20
2023-07-18T07:44:35.603Z,1.80
2023-07-18T07:47:07.693Z,2.00
2023-07-18T07:49:38.828Z,1.80
2023-07-18T07:52:10.748Z,1.90
2023-07-18T07:54:42.267Z,1.80
2023-07-18T07:57:13.321Z,2.00
2023-07-18T07:59:45.247Z,1.50
2023-07-18T08:02:16.583Z,1.70
2023-07-18T08:04:48.102Z,2.00
2023-07-18T08:07:20.029Z,2.10
2023-07-18T08:09:51.481Z,1.70
2023-07-18T08:12:22.829Z,1.60
2023-07-18T08:14:54.497Z,1.50
2023-07-18T08:17:26.738Z,1.60
2023-07-18T08:19:58.116Z,1.40
2023-07-18T08:22:29.272Z,1.50
2023-07-18T08:25:00.268Z,1.60
2023-07-18T08:27:31.226Z,1.70
2023-07-18T08:30:02.569Z,4.80
2023-07-18T08:32:33.902Z,1.80
2023-07-18T08:35:05.622Z,1.60
2023-07-18T08:37:36.923Z,2.50
2023-07-18T08:40:11.780Z,1.90
2023-07-18T08:42:44.768Z,1.50
2023-07-18T08:45:18.294Z,2.00
2023-07-18T08:47:57.535Z,1.80
2023-07-18T08:50:32.321Z,1.70
2023-07-18T08:55:34.719Z,1.80
2023-07-18T08:58:06.404Z,1.60
2023-07-18T09:00:37.449Z,1.70
2023-07-18T09:03:08.529Z,1.60
2023-07-18T09:05:40.638Z,1.50
2023-07-18T09:08:11.667Z,2.00
2023-07-18T09:10:42.708Z,2.10
2023-07-18T09:13:13.740Z,1.70
2023-07-18T09:15:44.754Z,2.00
2023-07-18T09:18:19.830Z,1.30
2023-07-18T09:20:50.870Z,1.60
2023-07-18T09:23:22.220Z,1.30
2023-07-18T09:25:53.363Z,1.70
2023-07-18T09:28:24.814Z,1.50
2023-07-18T09:30:55.852Z,1.20
2023-07-18T09:33:30.180Z,1.50
2023-07-18T09:36:01.853Z,1.60
2023-07-18T09:38:33.752Z,1.40
2023-07-18T09:41:06.177Z,1.30
2023-07-18T09:43:38.889Z,1.20
2023-07-18T09:46:12.664Z,1.30
2023-07-18T09:48:45.549Z,1.40
2023-07-18T09:51:22.034Z,1.40
2023-07-18T09:53:57.603Z,1.30
2023-07-18T09:56:35.838Z,1.30
2023-07-18T09:59:09.733Z,1.00
2023-07-18T10:01:41.613Z,1.80
2023-07-18T10:04:13.335Z,1.50
2023-07-18T10:06:45.276Z,1.20
2023-07-18T10:09:17.774Z,1.20
2023-07-18T10:12:21.762Z,1.70
2023-07-18T10:14:58.038Z,1.30
2023-07-18T10:17:41.714Z,1.40
2023-07-18T10:20:21.235Z,1.20
2023-07-18T10:22:58.592Z,1.50
2023-07-18T10:25:32.187Z,1.70
2023-07-18T10:28:05.070Z,1.70
2023-07-18T10:30:43.000Z,1.50
2023-07-18T10:33:14.715Z,1.20
2023-07-18T10:35:45.998Z,1.50
2023-07-18T10:38:18.066Z,1.70
2023-07-18T10:40:50.137Z,1.50
2023-07-18T10:43:21.889Z,1.50
2023-07-18T10:45:53.805Z,1.40
2023-07-18T10:48:25.005Z,1.60
2023-07-18T10:50:56.862Z,1.40
2023-07-18T10:53:30.377Z,1.30
2023-07-18T10:56:02.147Z,1.50
2023-07-18T10:58:33.526Z,1.30
2023-07-18T11:01:05.015Z,1.40
2023-07-18T11:03:37.486Z,1.50
2023-07-18T11:06:09.691Z,1.40
2023-07-18T11:08:41.132Z,1.60
2023-07-18T11:11:12.273Z,1.40
2023-07-18T11:13:45.182Z,1.50
2023-07-18T11:16:18.592Z,1.60
2023-07-18T11:18:55.649Z,1.40
2023-07-18T11:21:27.375Z,1.60
2023-07-18T11:23:59.201Z,1.80
2023-07-18T11:26:32.226Z,7.00
2023-07-18T11:29:06.114Z,12.30
2023-07-18T11:31:45.386Z,2.70
2023-07-18T11:34:25.735Z,2.30
2023-07-18T11:37:18.356Z,1.60
2023-07-18T11:39:53.302Z,1.00
2023-07-18T11:42:24.588Z,1.40
2023-07-18T11:44:59.930Z,1.20
2023-07-18T11:47:31.445Z,1.80
2023-07-18T11:50:10.022Z,2.00
2023-07-18T11:52:41.974Z,1.70
2023-07-18T11:55:13.537Z,1.10
2023-07-18T11:57:44.923Z,1.30
2023-07-18T12:00:18.296Z,1.10
2023-07-18T12:02:50.141Z,1.30
2023-07-18T12:05:24.085Z,1.60
2023-07-18T12:07:56.827Z,1.40
2023-07-18T12:10:27.884Z,1.10
2023-07-18T12:12:59.026Z,1.20
2023-07-18T12:15:30.577Z,1.00
2023-07-18T12:18:01.889Z,0.90
2023-07-18T12:20:33.089Z,1.30
2023-07-18T12:23:04.281Z,1.20
2023-07-18T12:25:35.560Z,1.30
2023-07-18T12:28:09.750Z,1.20
2023-07-18T12:30:41.066Z,1.50
2023-07-18T12:33:13.764Z,1.20
2023-07-18T12:35:45.010Z,1.20
2023-07-18T12:38:16.407Z,1.20
2023-07-18T12:40:47.549Z,1.40
2023-07-18T12:43:18.693Z,1.20
2023-07-18T12:45:50.061Z,1.40
2023-07-18T12:48:21.665Z,1.20
2023-07-18T12:50:53.871Z,1.50
2023-07-18T12:53:24.952Z,1.40
2023-07-18T12:55:56.407Z,1.40
2023-07-18T12:58:27.514Z,1.30
2023-07-18T13:00:58.586Z,1.30
2023-07-18T13:03:32.627Z,3.80
2023-07-18T13:06:07.184Z,7.20
2023-07-18T13:08:38.240Z,1.80
2023-07-18T13:11:09.554Z,1.20
2023-07-18T13:13:41.290Z,1.40
2023-07-18T13:16:12.640Z,1.20
2023-07-18T13:18:43.664Z,1.30
2023-07-18T13:21:15.343Z,0.90
2023-07-18T13:23:46.776Z,1.20
2023-07-18T13:26:21.080Z,2.00
2023-07-18T13:28:52.514Z,1.60
2023-07-18T13:31:23.687Z,1.10
2023-07-18T13:33:55.344Z,1.60
2023-07-18T13:36:26.786Z,1.20
2023-07-18T13:38:57.923Z,1.00
2023-07-18T13:41:29.161Z,1.10
2023-07-18T13:44:00.209Z,1.00
2023-07-18T13:46:31.332Z,1.20
2023-07-18T13:49:02.927Z,3.20
2023-07-18T13:51:34.370Z,1.50
2023-07-18T13:54:05.531Z,1.10
2023-07-18T13:56:36.497Z,2.30
2023-07-18T13:59:07.815Z,2.10
2023-07-18T14:01:38.872Z,1.30
2023-07-18T14:04:10.303Z,1.40
2023-07-18T14:06:41.356Z,1.40
2023-07-18T14:09:12.300Z,1.10
2023-07-18T14:11:43.392Z,1.10
2023-07-18T14:14:14.482Z,1.30
2023-07-18T14:16:45.518Z,1.10
2023-07-18T14:19:16.517Z,1.20
2023-07-18T14:21:47.494Z,1.10
2023-07-18T14:24:18.505Z,1.70
2023-07-18T14:26:49.408Z,1.00
2023-07-18T14:29:22.970Z,1.20
2023-07-18T14:31:55.564Z,1.30
2023-07-18T14:34:26.610Z,1.20
2023-07-18T14:36:57.588Z,1.20
2023-07-18T14:39:28.703Z,1.20
2023-07-18T14:42:00.142Z,1.10
2023-07-18T14:44:31.209Z,1.10
2023-07-18T14:47:02.217Z,0.90
2023-07-18T14:49:33.241Z,1.20
2023-07-18T14:52:04.475Z,1.10
2023-07-18T14:54:35.800Z,1.40
2023-07-18T14:57:07.358Z,1.10
2023-07-18T14:59:38.607Z,1.00
2023-07-18T15:02:11.715Z,1.10
2023-07-18T15:04:42.752Z,1.70
2023-07-18T15:07:13.803Z,1.20
2023-07-18T15:09:46.143Z,1.10
2023-07-18T15:12:17.179Z,1.10
2023-07-18T15:14:50.756Z,1.00
2023-07-18T15:17:22.070Z,0.90
2023-07-18T15:19:53.361Z,1.40
2023-07-18T15:22:24.927Z,1.00
2023-07-18T15:24:56.319Z,1.20
2023-07-18T15:27:30.192Z,1.20
2023-07-18T15:30:01.322Z,1.30
2023-07-18T15:32:32.588Z,1.20
2023-07-18T15:35:05.132Z,0.90
2023-07-18T15:37:38.747Z,1.50
2023-07-18T15:40:12.342Z,1.40
2023-07-18T15:42:43.876Z,1.30
2023-07-18T15:45:15.194Z,1.80
2023-07-18T15:47:47.438Z,1.40
2023-07-18T15:50:20.868Z,1.20
2023-07-18T15:52:51.918Z,1.40
2023-07-18T15:55:23.458Z,1.10
2023-07-18T15:57:54.508Z,1.50
2023-07-18T16:00:26.055Z,1.50
2023-07-18T16:02:57.598Z,1.30
2023-07-18T16:05:28.957Z,1.50
2023-07-18T16:08:02.363Z,1.00
2023-07-18T16:10:33.410Z,1.10
2023-07-18T16:13:04.344Z,1.00
2023-07-18T16:15:35.519Z,1.40
2023-07-18T16:18:06.803Z,1.20
2023-07-18T16:20:38.028Z,1.00
2023-07-18T16:23:09.128Z,1.30
2023-07-18T16:25:40.425Z,1.20
2023-07-18T16:28:12.296Z,1.30
2023-07-18T16:30:43.977Z,1.10
2023-07-18T16:33:15.206Z,1.60
2023-07-18T16:35:48.714Z,1.60
2023-07-18T16:38:21.993Z,1.50
2023-07-18T16:40:58.684Z,1.40
2023-07-18T16:43:31.070Z,1.50
2023-07-18T16:46:03.301Z,1.30
2023-07-18T16:48:34.356Z,1.10
2023-07-18T16:51:08.573Z,1.20
2023-07-18T16:53:39.657Z,1.10
2023-07-18T16:56:13.060Z,1.20
2023-07-18T16:58:45.917Z,1.60
2023-07-18T17:01:17.205Z,1.30
2023-07-18T17:03:48.493Z,1.50
2023-07-18T17:06:19.889Z,1.20
2023-07-18T17:08:51.563Z,1.30
2023-07-18T17:11:22.854Z,1.50
2023-07-18T17:13:55.273Z,1.30
2023-07-18T17:16:26.694Z,1.40
2023-07-18T17:18:57.824Z,1.40
2023-07-18T17:21:29.962Z,1.20
2023-07-18T17:24:01.149Z,1.30
2023-07-18T17:26:33.407Z,1.70
2023-07-18T17:29:04.394Z,1.40
2023-07-18T17:31:35.694Z,1.20
2023-07-18T17:34:06.845Z,1.70
2023-07-18T17:36:38.004Z,1.30
2023-07-18T17:39:09.241Z,1.50
2023-07-18T17:41:40.409Z,1.10
2023-07-18T17:44:11.578Z,1.60
2023-07-18T17:46:43.088Z,2.00
2023-07-18T17:49:14.524Z,1.90
2023-07-18T17:51:46.877Z,2.40
2023-07-18T17:54:18.137Z,5.20
2023-07-18T17:56:49.546Z,3.50
2023-07-18T17:59:20.697Z,6.80
2023-07-18T18:01:51.949Z,6.00
2023-07-18T18:04:23.351Z,2.70
2023-07-18T18:06:54.804Z,2.80
2023-07-18T18:09:26.154Z,2.40
2023-07-18T18:11:57.759Z,2.10
2023-07-18T18:14:31.431Z,2.10
2023-07-18T18:17:02.937Z,1.80
2023-07-18T18:19:36.082Z,1.80
2023-07-18T18:22:07.790Z,2.00
2023-07-18T18:24:39.085Z,1.90
2023-07-18T18:27:10.615Z,1.70
2023-07-18T18:29:41.739Z,2.00
2023-07-18T18:32:13.464Z,1.90
2023-07-18T18:34:56.843Z,2.40
2023-07-18T18:37:36.084Z,1.50
2023-07-18T18:40:08.758Z,1.50
2023-07-18T18:42:39.911Z,1.80
2023-07-18T18:45:12.406Z,1.50
2023-07-18T18:47:44.225Z,1.80
2023-07-18T18:50:17.225Z,2.00
2023-07-18T18:52:48.477Z,2.10
2023-07-18T18:55:21.090Z,2.00
2023-07-18T18:57:53.493Z,1.90
2023-07-18T19:00:24.648Z,2.00
2023-07-18T19:02:58.765Z,2.10
2023-07-18T19:05:31.804Z,16.90
2023-07-18T19:08:02.924Z,6.10
2023-07-18T19:10:33.971Z,2.70
2023-07-18T19:13:05.247Z,2.70
2023-07-18T19:15:36.586Z,3.00
2023-07-18T19:18:08.017Z,2.70
2023-07-18T19:20:39.093Z,2.40
2023-07-18T19:23:10.758Z,2.30
2023-07-18T19:25:41.976Z,2.50
2023-07-18T19:28:13.219Z,3.20
2023-07-18T19:30:44.402Z,4.30
2023-07-18T19:33:15.731Z,5.00
2023-07-18T19:35:48.202Z,6.00
2023-07-18T19:38:19.487Z,10.90
2023-07-18T19:40:50.462Z,8.00
2023-07-18T19:43:21.598Z,8.30
2023-07-18T19:45:52.822Z,10.80
2023-07-18T19:48:24.114Z,12.90
2023-07-18T19:50:55.065Z,11.70
2023-07-18T19:53:27.851Z,11.30
2023-07-18T19:56:00.640Z,9.80
2023-07-18T19:58:32.233Z,10.10
2023-07-18T20:01:03.398Z,10.40
2023-07-18T20:03:48.013Z,11.20
2023-07-18T20:06:30.409Z,12.20
2023-07-18T20:09:02.064Z,7.10
2023-07-18T20:11:33.157Z,5.90
2023-07-18T20:14:04.912Z,4.90
2023-07-18T20:16:37.199Z,5.60
2023-07-18T20:19:08.698Z,4.70
2023-07-18T20:21:43.332Z,5.30
2023-07-18T20:24:14.666Z,3.80
2023-07-18T20:26:46.032Z,3.90
2023-07-18T20:29:17.676Z,4.50
2023-07-18T20:31:49.383Z,13.20
2023-07-18T20:34:20.725Z,9.10
2023-07-18T20:36:52.138Z,6.20
2023-07-18T20:39:23.727Z,5.20
2023-07-18T20:41:54.698Z,4.80
2023-07-18T20:44:25.880Z,3.70
2023-07-18T20:46:56.937Z,3.60
2023-07-18T20:49:28.479Z,3.60
2023-07-18T20:51:59.934Z,3.70
2023-07-18T20:54:36.092Z,3.60
2023-07-18T20:57:08.601Z,3.30
2023-07-18T20:59:39.649Z,3.80
2023-07-18T21:02:10.861Z,3.90
2023-07-18T21:04:42.527Z,3.30
2023-07-18T21:07:13.774Z,3.50
2023-07-18T21:09:45.215Z,2.60
2023-07-18T21:12:19.027Z,2.90
2023-07-18T21:14:50.373Z,3.00
2023-07-18T21:17:21.618Z,3.30
2023-07-18T21:19:52.871Z,3.20
2023-07-18T21:22:24.266Z,3.20
2023-07-18T21:24:55.486Z,3.50
2023-07-18T21:27:27.186Z,3.60
2023-07-18T21:29:58.761Z,3.20
2023-07-18T21:32:30.141Z,3.40
2023-07-18T21:35:01.609Z,3.10
2023-07-18T21:37:32.929Z,2.90
2023-07-18T21:40:04.942Z,2.90
2023-07-18T21:42:36.679Z,3.30
2023-07-18T21:45:08.930Z,2.90
2023-07-18T21:47:40.310Z,3.20
2023-07-18T21:50:11.859Z,2.90
2023-07-18T21:52:44.542Z,3.30
2023-07-18T21:55:15.885Z,2.60
2023-07-18T21:57:47.003Z,2.70
2023-07-18T22:00:19.378Z,3.20
2023-07-18T22:02:50.824Z,2.70
2023-07-18T22:05:22.593Z,2.40
2023-07-18T22:07:53.576Z,2.90
2023-07-18T22:10:25.087Z,2.80
2023-07-18T22:12:56.338Z,2.70
2023-07-18T22:15:28.299Z,2.60
2023-07-18T22:18:08.880Z,2.50
2023-07-18T22:20:47.961Z,4.90
2023-07-18T22:23:19.358Z,2.80
2023-07-18T22:26:03.866Z,3.50
2023-07-18T22:28:41.910Z,3.10
2023-07-18T22:31:14.533Z,3.10
2023-07-18T22:33:46.314Z,2.90
2023-07-18T22:36:17.821Z,2.70
2023-07-18T22:38:49.264Z,3.20
2023-07-18T22:41:21.086Z,3.00
2023-07-18T22:43:52.589Z,3.00
2023-07-18T22:46:23.792Z,3.50
2023-07-18T22:48:55.062Z,2.80
2023-07-18T22:51:26.491Z,3.60
2023-07-18T22:53:57.970Z,3.20
2023-07-18T22:56:30.272Z,3.00
2023-07-18T22:59:01.489Z,3.00
2023-07-18T23:01:32.665Z,2.70
2023-07-18T23:04:03.755Z,3.00
2023-07-18T23:06:35.440Z,3.00
2023-07-18T23:09:06.685Z,3.40
2023-07-18T23:11:37.836Z,3.20
2023-07-18T23:14:09.521Z,3.30
2023-07-18T23:16:40.600Z,3.20
2023-07-18T23:19:12.093Z,3.30
2023-07-18T23:21:43.129Z,3.00
2023-07-18T23:24:14.122Z,3.50
2023-07-18T23:26:45.142Z,3.10
2023-07-18T23:29:16.258Z,3.20
2023-07-18T23:31:47.447Z,3.70
2023-07-18T23:34:18.507Z,3.50
2023-07-18T23:36:49.751Z,3.90
2023-07-18T23:39:21.471Z,4.30
2023-07-18T23:41:52.698Z,4.30
2023-07-18T23:44:23.740Z,4.30
2023-07-18T23:46:54.786Z,4.10
2023-07-18T23:49:26.134Z,4.00
2023-07-18T23:51:57.383Z,4.50
2023-07-18T23:54:28.525Z,4.20
2023-07-18T23:57:00.193Z,3.70
2023-07-18T23:59:31.430Z,4.00
